Time;durP1;ratioP1;P1;durP2;ratioP2;P2;SDS_P1;SDS_P2;PMS_P1;PMS_P2;Temp;Humidity;BMP_temperature;BMP_pressure;BME280_temperature;BME280_humidity;BME280_pressure;Samples;Min_cycle;Max_cycle;Signal;HPM_P1;HPM_P2
2022/08/31 00:05:39;;;;;;;6.63;5.60;;;23.20;64.00;;;;;;5051701;28;20530;-81
2022/08/31 00:08:07;;;;;;;6.33;5.73;;;23.20;64.20;;;;;;5043927;28;20445;-80
2022/08/31 00:10:33;;;;;;;7.23;5.10;;;23.20;64.20;;;;;;5044492;28;20449;-81
2022/08/31 00:13:01;;;;;;;5.83;5.07;;;23.20;64.40;;;;;;5048823;28;20441;-81
2022/08/31 00:15:28;;;;;;;7.70;5.03;;;23.20;64.90;;;;;;5043911;28;21087;-81
2022/08/31 00:17:57;;;;;;;8.77;7.90;;;23.20;65.50;;;;;;5070487;28;20417;-79
2022/08/31 00:20:26;;;;;;;7.47;6.77;;;23.20;65.90;;;;;;5055850;28;20442;-80
2022/08/31 00:22:53;;;;;;;8.43;6.47;;;23.20;66.10;;;;;;5045321;28;20493;-79
2022/08/31 00:25:19;;;;;;;7.37;5.40;;;23.10;66.20;;;;;;5046918;28;20461;-80
2022/08/31 00:27:46;;;;;;;6.17;5.67;;;23.10;65.80;;;;;;5047831;28;20452;-80
2022/08/31 00:30:13;;;;;;;6.10;5.00;;;23.10;65.70;;;;;;5050744;28;20475;-78
2022/08/31 00:32:40;;;;;;;5.83;5.23;;;23.10;65.70;;;;;;5050856;28;20437;-78
2022/08/31 00:35:09;;;;;;;8.73;6.20;;;23.10;65.90;;;;;;5048975;28;20430;-79
2022/08/31 00:37:36;;;;;;;4.80;4.40;;;23.10;66.10;;;;;;5048103;28;20444;-80
2022/08/31 00:40:04;;;;;;;7.77;5.50;;;23.10;66.10;;;;;;5045012;28;20445;-78
2022/08/31 00:42:30;;;;;;;8.17;5.40;;;23.10;66.20;;;;;;5044528;28;20549;-80
2022/08/31 00:44:57;;;;;;;6.83;6.13;;;23.10;66.20;;;;;;5044622;28;20456;-80
2022/08/31 00:47:24;;;;;;;6.20;5.60;;;23.10;66.40;;;;;;5053209;28;20478;-80
2022/08/31 00:49:51;;;;;;;5.70;5.10;;;23.10;66.50;;;;;;5060222;28;20433;-80
2022/08/31 00:52:22;;;;;;;5.63;5.13;;;23.10;66.60;;;;;;5067259;28;20452;-78
2022/08/31 00:54:53;;;;;;;6.20;5.60;;;23.10;66.70;;;;;;5067603;28;20454;-79
2022/08/31 00:57:21;;;;;;;7.93;5.30;;;23.10;67.40;;;;;;5066157;28;20457;-78
2022/08/31 00:59:48;;;;;;;6.87;5.50;;;23.00;69.20;;;;;;5062462;28;20434;-79
2022/08/31 01:02:16;;;;;;;6.33;5.73;;;23.00;74.80;;;;;;5059806;28;20434;-77
2022/08/31 01:04:43;;;;;;;9.73;6.23;;;22.90;78.20;;;;;;5043508;28;20450;-79
2022/08/31 01:07:10;;;;;;;6.17;5.57;;;22.70;80.80;;;;;;5048624;28;20839;-79
2022/08/31 01:09:41;;;;;;;7.07;6.50;;;22.50;84.60;;;;;;5048137;28;20445;-81
2022/08/31 01:12:08;;;;;;;7.33;6.60;;;22.30;89.60;;;;;;5052379;28;20449;-79
2022/08/31 01:14:36;;;;;;;9.00;7.80;;;22.20;92.30;;;;;;5059352;28;20495;-79
2022/08/31 01:17:03;;;;;;;9.23;7.73;;;22.10;94.60;;;;;;5060105;28;20450;-79
2022/08/31 01:19:34;;;;;;;8.60;7.80;;;22.00;96.90;;;;;;5063626;28;20438;-80
2022/08/31 01:22:10;;;;;;;11.70;8.23;;;21.90;99.40;;;;;;5064231;28;20696;-79
2022/08/31 01:24:43;;;;;;;8.63;7.73;;;21.80;99.90;;;;;;5057082;28;20828;-81
2022/08/31 01:27:11;;;;;;;11.20;7.67;;;21.80;99.90;;;;;;5050383;28;20461;-81
2022/08/31 01:29:38;;;;;;;7.87;7.20;;;21.80;99.90;;;;;;5051637;28;20445;-81
2022/08/31 01:32:06;;;;;;;8.60;7.80;;;21.70;99.90;;;;;;5046789;28;20933;-81
2022/08/31 01:34:33;;;;;;;11.33;8.77;;;21.60;99.90;;;;;;5060715;28;20429;-80
2022/08/31 01:37:00;;;;;;;9.70;8.03;;;21.50;99.90;;;;;;5054736;28;20476;-81
2022/08/31 01:39:28;;;;;;;9.27;8.37;;;21.40;99.90;;;;;;5049950;28;20445;-79
2022/08/31 01:41:56;;;;;;;9.40;8.40;;;21.40;99.90;;;;;;5045296;28;20437;-80
2022/08/31 01:44:25;;;;;;;9.60;6.97;;;21.30;99.90;;;;;;5043947;28;20485;-80
2022/08/31 01:46:52;;;;;;;11.07;8.07;;;21.30;99.90;;;;;;5043549;28;20465;-81
2022/08/31 01:49:20;;;;;;;8.37;7.37;;;21.20;99.90;;;;;;5052903;28;20444;-80
2022/08/31 01:51:47;;;;;;;8.53;7.73;;;21.10;99.90;;;;;;5043817;28;20440;-81
2022/08/31 01:54:14;;;;;;;10.00;8.13;;;21.00;99.90;;;;;;5046919;28;20441;-81
2022/08/31 01:56:43;;;;;;;9.83;8.80;;;21.00;99.90;;;;;;5047668;28;20536;-79
2022/08/31 01:59:14;;;;;;;8.83;7.90;;;21.00;99.90;;;;;;5059901;28;20867;-78
2022/08/31 02:01:43;;;;;;;9.17;7.80;;;21.00;99.90;;;;;;5070560;28;20434;-79
2022/08/31 02:04:12;;;;;;;8.63;7.73;;;21.00;99.90;;;;;;5061342;28;20534;-79
2022/08/31 02:06:41;;;;;;;9.30;7.60;;;20.90;99.90;;;;;;5054255;28;20453;-80
2022/08/31 02:09:08;;;;;;;8.73;7.93;;;20.90;99.90;;;;;;5060774;28;20464;-81
2022/08/31 02:11:35;;;;;;;9.90;8.53;;;20.90;99.90;;;;;;5047991;28;20441;-80
2022/08/31 02:14:02;;;;;;;9.13;7.30;;;20.70;99.90;;;;;;5046618;28;20439;-81
2022/08/31 02:16:30;;;;;;;10.37;7.97;;;20.50;99.90;;;;;;5043247;28;20479;-81
2022/08/31 02:18:57;;;;;;;9.40;8.00;;;20.50;99.90;;;;;;5043788;28;20441;-81
2022/08/31 02:21:23;;;;;;;9.93;8.33;;;20.40;99.90;;;;;;5045592;28;20449;-81
2022/08/31 02:23:50;;;;;;;10.80;9.80;;;20.50;99.90;;;;;;5042964;28;20477;-81
2022/08/31 02:26:17;;;;;;;11.30;8.77;;;20.50;99.90;;;;;;5041279;28;20818;-81
2022/08/31 02:28:45;;;;;;;10.20;9.20;;;20.50;99.90;;;;;;5051320;28;20438;-82
2022/08/31 02:31:11;;;;;;;8.63;7.83;;;20.60;99.90;;;;;;5045404;28;20458;-81
2022/08/31 02:33:39;;;;;;;11.33;8.40;;;20.60;99.90;;;;;;5047085;28;20457;-81
2022/08/31 02:36:07;;;;;;;9.00;8.10;;;20.60;99.90;;;;;;5042891;28;20983;-82
2022/08/31 02:38:35;;;;;;;9.57;8.60;;;20.60;99.90;;;;;;5044738;28;20448;-82
2022/08/31 02:41:02;;;;;;;12.93;9.47;;;20.60;99.90;;;;;;5043515;28;20520;-78
2022/08/31 02:43:29;;;;;;;10.30;9.30;;;20.60;99.90;;;;;;5044558;28;20480;-82
2022/08/31 02:45:55;;;;;;;13.00;9.60;;;20.60;99.90;;;;;;5049687;28;20532;-79
2022/08/31 02:48:22;;;;;;;18.43;9.90;;;20.60;99.90;;;;;;5056965;28;20457;-78
2022/08/31 02:50:51;;;;;;;11.13;8.90;;;20.50;99.90;;;;;;5056868;28;20425;-79
2022/08/31 02:53:21;;;;;;;10.20;9.17;;;20.50;99.90;;;;;;5058831;28;20434;-80
2022/08/31 02:55:48;;;;;;;10.23;9.17;;;20.40;99.90;;;;;;5048392;28;20456;-80
2022/08/31 02:58:15;;;;;;;9.63;8.73;;;20.30;99.90;;;;;;5044393;28;20832;-81
2022/08/31 03:00:45;;;;;;;10.90;9.40;;;20.30;99.90;;;;;;5045086;28;21059;-81
2022/08/31 03:06:33;;;;;;;10.97;9.80;;;20.20;99.90;;;;;;5061798;28;20460;-80
2022/08/31 03:09:01;;;;;;;11.30;10.20;;;20.30;99.90;;;;;;5053610;28;20441;-80
2022/08/31 03:11:27;;;;;;;10.93;9.73;;;20.30;99.90;;;;;;5048810;28;20444;-80
2022/08/31 03:13:54;;;;;;;10.90;9.40;;;20.20;99.90;;;;;;5055859;28;20444;-79
2022/08/31 03:16:21;;;;;;;12.37;9.30;;;20.20;99.90;;;;;;5052584;28;20456;-78
2022/08/31 03:18:48;;;;;;;11.23;9.90;;;20.10;99.90;;;;;;5052753;28;20443;-80
2022/08/31 03:21:15;;;;;;;12.60;11.33;;;20.10;99.90;;;;;;5050487;28;20472;-80
2022/08/31 03:23:44;;;;;;;12.60;10.07;;;20.10;99.90;;;;;;5053662;28;20473;-81
2022/08/31 03:26:11;;;;;;;11.97;10.70;;;20.10;99.90;;;;;;5054269;28;20460;-82
2022/08/31 03:28:39;;;;;;;10.53;9.57;;;20.10;99.90;;;;;;5055405;28;20441;-82
2022/08/31 03:31:07;;;;;;;12.40;11.03;;;20.00;99.90;;;;;;5052305;28;20831;-81
2022/08/31 03:33:33;;;;;;;11.83;9.47;;;20.00;99.90;;;;;;5054329;28;20442;-79
2022/08/31 03:36:03;;;;;;;11.67;10.30;;;19.90;99.90;;;;;;5049163;28;20465;-80
2022/08/31 03:38:30;;;;;;;12.03;10.50;;;19.90;99.90;;;;;;5052769;28;20455;-81
2022/08/31 03:40:58;;;;;;;11.00;9.90;;;19.90;99.90;;;;;;5049723;28;20468;-81
2022/08/31 03:43:25;;;;;;;10.00;9.10;;;19.80;99.90;;;;;;5048002;28;20484;-81
2022/08/31 03:45:52;;;;;;;11.10;9.67;;;19.80;99.90;;;;;;5050650;28;20484;-81
2022/08/31 03:48:18;;;;;;;12.93;9.83;;;19.80;99.90;;;;;;5049184;28;20449;-81
2022/08/31 03:50:45;;;;;;;9.73;8.83;;;19.80;99.90;;;;;;5049353;28;20853;-81
2022/08/31 03:53:12;;;;;;;12.10;9.50;;;19.80;99.90;;;;;;5067104;28;20441;-79
2022/08/31 03:55:42;;;;;;;12.10;9.87;;;19.80;99.90;;;;;;5059642;28;20465;-81
2022/08/31 03:58:10;;;;;;;11.70;9.20;;;19.90;99.90;;;;;;5051838;28;20441;-81
2022/08/31 04:00:38;;;;;;;14.27;10.33;;;19.90;99.90;;;;;;5050561;28;20491;-81
2022/08/31 04:03:04;;;;;;;10.23;9.20;;;19.90;99.90;;;;;;5050609;28;20855;-82
2022/08/31 04:05:33;;;;;;;9.80;8.60;;;20.00;99.90;;;;;;5051161;28;20468;-80
2022/08/31 04:08:00;;;;;;;11.27;9.93;;;20.00;99.90;;;;;;5053139;28;20450;-81
2022/08/31 04:10:27;;;;;;;11.80;10.60;;;20.10;99.90;;;;;;5049411;28;20444;-81
2022/08/31 04:12:53;;;;;;;10.00;9.10;;;20.10;99.90;;;;;;5049244;28;20830;-81
2022/08/31 04:15:22;;;;;;;10.53;8.83;;;20.00;99.90;;;;;;5062838;28;20463;-79
2022/08/31 04:17:48;;;;;;;11.90;9.77;;;20.00;99.90;;;;;;5068950;28;20423;-78
2022/08/31 04:20:15;;;;;;;10.50;9.50;;;19.90;99.90;;;;;;5065363;28;20508;-81
2022/08/31 04:22:42;;;;;;;15.13;10.83;;;19.80;99.90;;;;;;5063118;28;20438;-80
2022/08/31 04:25:09;;;;;;;10.43;9.33;;;19.80;99.90;;;;;;5061182;28;20470;-79
2022/08/31 04:27:37;;;;;;;13.33;9.77;;;19.70;99.90;;;;;;5050958;28;20479;-81
2022/08/31 04:30:06;;;;;;;11.60;10.50;;;19.70;99.90;;;;;;5045048;28;20537;-81
2022/08/31 04:32:34;;;;;;;11.87;10.50;;;19.60;99.90;;;;;;5057874;28;20460;-79
2022/08/31 04:35:01;;;;;;;13.60;11.30;;;19.50;99.90;;;;;;5059871;28;20484;-80
2022/08/31 04:37:28;;;;;;;13.53;9.20;;;19.50;99.90;;;;;;5051077;28;21015;-81
2022/08/31 04:39:55;;;;;;;11.83;10.57;;;19.50;99.90;;;;;;5047813;28;20432;-81
2022/08/31 04:42:22;;;;;;;12.63;9.50;;;19.50;99.90;;;;;;5047049;28;20972;-81
2022/08/31 04:44:50;;;;;;;11.00;10.00;;;19.50;99.90;;;;;;5058536;28;20474;-78
2022/08/31 04:47:17;;;;;;;12.23;11.00;;;19.60;99.90;;;;;;5062113;28;20469;-79
2022/08/31 04:49:45;;;;;;;12.27;11.07;;;19.60;99.90;;;;;;5061377;28;20433;-79
2022/08/31 04:52:12;;;;;;;12.43;11.13;;;19.60;99.90;;;;;;5065163;28;20534;-81
2022/08/31 04:54:39;;;;;;;11.87;10.67;;;19.60;99.90;;;;;;5060297;28;20433;-82
2022/08/31 04:57:06;;;;;;;12.03;10.97;;;19.50;99.90;;;;;;5052871;28;20866;-79
2022/08/31 04:59:32;;;;;;;11.97;10.87;;;19.40;99.90;;;;;;5049134;28;20946;-82
2022/08/31 05:01:59;;;;;;;11.70;10.50;;;19.40;99.90;;;;;;5046927;28;20436;-82
2022/08/31 05:04:27;;;;;;;12.80;11.57;;;19.40;99.90;;;;;;5044934;28;20477;-82
2022/08/31 05:06:56;;;;;;;11.27;10.27;;;19.40;99.90;;;;;;5043797;28;20469;-82
2022/08/31 05:09:23;;;;;;;10.57;9.67;;;19.40;99.90;;;;;;5047440;28;20480;-79
2022/08/31 05:11:51;;;;;;;10.93;9.90;;;19.40;99.90;;;;;;5042617;28;20949;-81
2022/08/31 05:14:18;;;;;;;11.50;10.40;;;19.40;99.90;;;;;;5054069;28;20531;-79
2022/08/31 05:16:47;;;;;;;12.40;11.20;;;19.40;99.90;;;;;;5038665;28;20458;-79
2022/08/31 05:19:14;;;;;;;11.60;10.40;;;19.40;99.90;;;;;;5054487;28;20441;-81
2022/08/31 05:21:42;;;;;;;11.70;10.73;;;19.40;99.90;;;;;;5054778;28;20799;-81
2022/08/31 05:24:13;;;;;;;19.90;17.87;;;19.50;99.90;;;;;;5070051;28;20461;-81
2022/08/31 05:26:43;;;;;;;9.97;9.03;;;19.50;99.90;;;;;;5067132;28;20449;-78
2022/08/31 05:29:12;;;;;;;11.07;9.77;;;19.50;99.90;;;;;;5053784;28;20441;-80
2022/08/31 05:31:40;;;;;;;9.80;8.70;;;19.50;99.90;;;;;;5052873;28;20445;-80
2022/08/31 05:34:07;;;;;;;12.03;10.07;;;19.60;99.90;;;;;;5058998;28;20460;-78
2022/08/31 05:36:34;;;;;;;11.77;10.57;;;19.60;99.90;;;;;;5062712;28;20480;-80
2022/08/31 05:39:01;;;;;;;10.97;9.87;;;19.60;99.90;;;;;;5065627;28;20441;-82
2022/08/31 05:41:30;;;;;;;12.03;10.00;;;19.70;99.90;;;;;;5074342;28;20451;-81
2022/08/31 05:43:57;;;;;;;10.20;9.10;;;19.70;99.90;;;;;;5063455;28;20851;-82
2022/08/31 05:46:23;;;;;;;8.60;7.80;;;19.80;99.90;;;;;;5054698;28;20465;-79
2022/08/31 05:48:50;;;;;;;9.60;8.80;;;19.90;99.90;;;;;;5058017;28;20796;-82
2022/08/31 05:51:19;;;;;;;9.27;8.33;;;19.90;99.90;;;;;;5063290;28;20446;-82
2022/08/31 05:53:46;;;;;;;9.63;8.70;;;19.90;99.90;;;;;;5053586;28;20438;-79
2022/08/31 05:56:16;;;;;;;9.33;8.53;;;19.90;99.90;;;;;;5048085;28;20540;-81
2022/08/31 05:58:46;;;;;;;9.63;8.50;;;20.00;99.90;;;;;;5051512;28;20441;-82
2022/08/31 06:01:14;;;;;;;9.40;8.50;;;20.00;99.90;;;;;;5041337;28;20536;-82
2022/08/31 06:03:41;;;;;;;10.03;9.07;;;20.00;99.90;;;;;;5042046;28;20528;-81
2022/08/31 06:06:09;;;;;;;9.70;8.70;;;19.90;99.90;;;;;;5047229;28;20518;-80
2022/08/31 06:08:36;;;;;;;10.80;9.70;;;19.90;99.90;;;;;;5049801;28;20925;-81
2022/08/31 06:11:03;;;;;;;9.50;8.60;;;19.80;99.90;;;;;;5048160;28;20805;-82
2022/08/31 06:13:30;;;;;;;9.83;8.93;;;19.80;99.90;;;;;;5046351;28;20449;-81
2022/08/31 06:16:02;;;;;;;8.97;8.17;;;19.80;99.90;;;;;;5049570;28;20456;-81
2022/08/31 06:18:29;;;;;;;15.10;9.17;;;19.70;99.90;;;;;;5065444;22;20499;-79
2022/08/31 06:21:07;;;;;;;8.87;7.97;;;19.70;99.90;;;;;;5066797;28;20490;-79
2022/08/31 06:23:34;;;;;;;8.60;7.80;;;19.70;99.90;;;;;;5065955;28;20456;-80
2022/08/31 06:26:04;;;;;;;9.63;8.70;;;19.60;99.90;;;;;;5075069;28;20495;-79
2022/08/31 06:28:32;;;;;;;11.43;9.60;;;19.60;99.90;;;;;;5063957;28;20459;-79
2022/08/31 06:31:01;;;;;;;10.03;9.03;;;19.60;99.90;;;;;;5040523;28;20509;-79
2022/08/31 06:33:29;;;;;;;10.43;9.43;;;19.70;99.90;;;;;;5043862;28;20453;-79
2022/08/31 06:35:56;;;;;;;10.33;9.07;;;19.70;99.90;;;;;;5040939;28;20487;-79
2022/08/31 06:38:23;;;;;;;10.90;9.57;;;19.70;99.90;;;;;;5043352;28;20442;-79
2022/08/31 06:40:49;;;;;;;12.43;9.90;;;19.70;99.90;;;;;;5040938;28;20807;-79
2022/08/31 06:43:16;;;;;;;11.13;9.97;;;19.70;99.90;;;;;;5040562;28;20829;-79
2022/08/31 06:45:43;;;;;;;10.43;9.37;;;19.70;99.90;;;;;;5040563;28;20477;-79
2022/08/31 06:48:11;;;;;;;9.80;8.80;;;19.80;99.90;;;;;;5040579;28;20476;-79
2022/08/31 06:50:39;;;;;;;11.83;10.60;;;19.80;99.90;;;;;;5042149;28;20474;-79
2022/08/31 06:53:05;;;;;;;10.93;9.83;;;19.90;99.90;;;;;;5042130;28;20565;-79
2022/08/31 06:55:33;;;;;;;11.37;10.27;;;19.80;99.90;;;;;;5040564;28;20560;-79
2022/08/31 06:58:00;;;;;;;11.27;9.70;;;19.80;99.90;;;;;;5042357;28;20496;-80
2022/08/31 07:00:27;;;;;;;10.53;9.03;;;19.90;99.90;;;;;;5041364;28;20470;-79
2022/08/31 07:02:53;;;;;;;10.37;8.87;;;20.00;99.90;;;;;;5040230;28;20541;-79
2022/08/31 07:05:21;;;;;;;11.30;10.07;;;20.00;99.90;;;;;;5040207;28;20481;-79
2022/08/31 07:07:48;;;;;;;10.40;9.37;;;20.00;99.90;;;;;;5041498;28;20457;-79
2022/08/31 07:10:14;;;;;;;9.87;8.57;;;20.10;99.90;;;;;;5040591;28;20478;-79
2022/08/31 07:12:41;;;;;;;11.57;8.50;;;20.10;99.90;;;;;;5039928;28;20521;-79
2022/08/31 07:15:08;;;;;;;9.43;8.63;;;20.10;99.90;;;;;;5040773;28;20461;-79
2022/08/31 07:17:35;;;;;;;13.07;8.87;;;20.20;99.90;;;;;;5041688;28;20473;-80
2022/08/31 07:20:03;;;;;;;10.07;9.17;;;20.20;99.90;;;;;;5041503;28;20469;-80
2022/08/31 07:22:30;;;;;;;10.17;9.10;;;20.20;99.90;;;;;;5041971;28;20442;-80
2022/08/31 07:24:57;;;;;;;10.13;9.13;;;20.30;99.90;;;;;;5042024;28;20512;-79
2022/08/31 07:27:24;;;;;;;11.10;10.00;;;20.40;99.90;;;;;;5043329;28;20445;-80
2022/08/31 07:29:50;;;;;;;10.77;9.60;;;20.50;99.90;;;;;;5040965;28;20465;-79
2022/08/31 07:32:17;;;;;;;9.70;8.80;;;20.60;99.90;;;;;;5041011;28;20481;-79
2022/08/31 07:34:44;;;;;;;10.53;9.43;;;20.60;99.90;;;;;;5041803;28;20446;-79
2022/08/31 07:42:43;;;;;;;11.37;8.60;;;20.60;99.90;;;;;;5039933;28;20429;-79
2022/08/31 07:45:18;;;;;;;10.77;9.67;;;20.60;99.90;;;;;;5040184;28;21053;-79
2022/08/31 07:47:45;;;;;;;11.93;8.70;;;20.70;99.90;;;;;;5039995;28;20453;-79
2022/08/31 07:50:14;;;;;;;9.67;7.93;;;20.70;99.90;;;;;;5042681;28;20481;-79
2022/08/31 07:52:45;;;;;;;8.70;7.63;;;20.70;99.90;;;;;;5040354;28;20445;-79
2022/08/31 07:55:15;;;;;;;13.50;8.20;;;20.70;99.90;;;;;;5044024;28;20521;-79
2022/08/31 07:57:43;;;;;;;8.63;7.80;;;20.70;99.90;;;;;;5045280;28;20906;-79
2022/08/31 08:00:13;;;;;;;8.17;7.37;;;20.70;99.90;;;;;;5063672;28;20471;-80
2022/08/31 08:02:44;;;;;;;11.03;8.50;;;20.80;99.90;;;;;;5066290;28;20475;-79
2022/08/31 08:05:19;;;;;;;8.70;7.83;;;20.80;99.90;;;;;;5065901;28;20481;-80
2022/08/31 08:07:48;;;;;;;9.67;8.03;;;20.80;99.90;;;;;;5068098;28;20448;-80
2022/08/31 08:10:20;;;;;;;9.47;8.23;;;20.80;99.90;;;;;;5068950;28;20500;-80
2022/08/31 08:12:49;;;;;;;8.63;7.90;;;20.80;99.90;;;;;;5068033;28;20467;-80
2022/08/31 08:15:17;;;;;;;8.53;7.70;;;20.90;99.90;;;;;;5067265;28;20676;-80
2022/08/31 08:17:44;;;;;;;8.10;7.30;;;20.80;99.90;;;;;;5068990;28;20449;-80
2022/08/31 08:20:10;;;;;;;8.40;7.70;;;20.80;99.90;;;;;;5069071;28;20472;-80
2022/08/31 08:22:38;;;;;;;11.00;7.73;;;20.90;99.90;;;;;;5068172;28;20448;-80
2022/08/31 08:25:06;;;;;;;8.97;8.10;;;20.80;99.90;;;;;;5068732;28;20503;-80
2022/08/31 08:27:34;;;;;;;9.60;7.70;;;20.90;99.90;;;;;;5069312;28;20467;-80
2022/08/31 08:30:01;;;;;;;7.93;7.23;;;20.80;99.90;;;;;;5069352;28;20469;-80
2022/08/31 08:32:30;;;;;;;10.47;8.03;;;20.90;99.90;;;;;;5068034;28;20441;-80
2022/08/31 08:34:57;;;;;;;8.67;7.87;;;20.90;99.90;;;;;;5066924;28;20433;-80
2022/08/31 08:37:26;;;;;;;9.63;8.13;;;20.90;99.90;;;;;;5068319;28;20449;-80
2022/08/31 08:39:53;;;;;;;9.53;8.67;;;20.90;99.90;;;;;;5068223;28;20556;-80
2022/08/31 08:42:21;;;;;;;7.80;7.10;;;20.90;99.90;;;;;;5068885;28;20471;-80
2022/08/31 08:44:50;;;;;;;8.50;7.70;;;21.00;99.90;;;;;;5067419;28;20484;-80
2022/08/31 08:47:20;;;;;;;8.77;7.97;;;21.00;99.90;;;;;;5068713;28;20457;-80
2022/08/31 08:49:49;;;;;;;11.17;8.03;;;21.00;99.90;;;;;;5068718;28;21003;-80
2022/08/31 08:52:23;;;;;;;8.90;8.10;;;21.10;99.90;;;;;;5068293;28;20814;-80
2022/08/31 08:54:51;;;;;;;11.17;8.17;;;21.20;99.90;;;;;;5067967;28;20441;-80
2022/08/31 08:57:22;;;;;;;8.43;7.57;;;21.20;99.90;;;;;;5068297;28;20445;-80
2022/08/31 08:59:53;;;;;;;7.97;7.27;;;21.30;99.90;;;;;;5066265;28;20468;-80
2022/08/31 09:02:24;;;;;;;8.10;7.40;;;21.20;99.90;;;;;;5068569;28;20444;-80
2022/08/31 09:05:23;;;;;;;9.20;8.30;;;21.30;99.90;;;;;;5068403;28;20476;-80
2022/08/31 09:08:17;;;;;;;10.83;9.63;;;21.40;99.90;;;;;;5067815;28;20510;-80
2022/08/31 09:10:49;;;;;;;9.90;8.80;;;21.50;99.90;;;;;;5068216;28;20471;-80
2022/08/31 09:13:24;;;;;;;9.33;8.40;;;21.60;99.90;;;;;;5066416;28;20455;-80
2022/08/31 09:16:03;;;;;;;8.43;7.50;;;21.60;99.90;;;;;;5047382;28;20442;-80
2022/08/31 09:18:42;;;;;;;8.53;7.80;;;21.80;99.90;;;;;;5047115;28;20934;-80
2022/08/31 09:21:20;;;;;;;8.93;8.13;;;22.00;99.90;;;;;;5046020;28;20478;-80
2022/08/31 09:23:53;;;;;;;8.50;6.73;;;22.10;99.90;;;;;;5039352;28;20457;-79
2022/08/31 09:26:24;;;;;;;8.07;7.27;;;22.10;99.90;;;;;;5038034;28;20481;-79
2022/08/31 09:28:52;;;;;;;8.23;7.10;;;22.20;99.90;;;;;;5045049;28;20933;-80
2022/08/31 09:31:45;;;;;;;8.63;7.83;;;22.20;99.90;;;;;;5060914;28;20453;-81
2022/08/31 09:34:27;;;;;;;8.13;7.33;;;22.30;99.90;;;;;;5058583;28;20452;-81
2022/08/31 09:37:15;;;;;;;9.30;8.10;;;22.30;99.90;;;;;;5070950;28;20491;-80
2022/08/31 09:39:46;;;;;;;7.70;7.00;;;22.30;99.90;;;;;;5069134;28;20452;-80
2022/08/31 09:42:18;;;;;;;11.57;7.73;;;22.40;99.90;;;;;;5068564;28;20472;-80
2022/08/31 09:44:48;;;;;;;8.70;7.90;;;22.40;99.90;;;;;;5074387;28;20500;-80
2022/08/31 09:47:47;;;;;;;8.27;7.53;;;22.50;99.90;;;;;;5067931;28;20468;-80
2022/08/31 09:50:30;;;;;;;9.17;7.73;;;22.60;99.80;;;;;;5067842;28;20473;-81
2022/08/31 09:56:14;;;;;;;8.67;6.80;;;22.70;99.20;;;;;;5067509;28;20819;-80
2022/08/31 09:58:42;;;;;;;8.97;7.57;;;22.60;98.90;;;;;;5066564;28;20530;-81
2022/08/31 10:01:14;;;;;;;8.30;7.50;;;22.70;98.70;;;;;;5067603;28;20448;-80
2022/08/31 10:03:44;;;;;;;9.03;7.77;;;22.80;98.70;;;;;;5066693;28;20456;-81
2022/08/31 10:06:45;;;;;;;8.83;7.80;;;23.00;98.10;;;;;;5066587;28;20488;-81
2022/08/31 10:09:20;;;;;;;10.87;7.47;;;23.10;97.70;;;;;;5067926;28;20469;-80
2022/08/31 10:11:48;;;;;;;9.00;8.10;;;23.20;97.30;;;;;;5068644;28;20452;-80
2022/08/31 10:14:25;;;;;;;8.20;7.17;;;23.30;97.00;;;;;;5067847;28;20437;-81
2022/08/31 10:16:58;;;;;;;8.03;7.23;;;23.30;96.80;;;;;;5062681;28;20449;-89
2022/08/31 10:19:36;;;;;;;8.87;7.80;;;23.30;96.60;;;;;;5058279;28;20485;-86
2022/08/31 10:22:09;;;;;;;8.70;7.80;;;23.50;96.20;;;;;;5055298;28;20509;-87
2022/08/31 10:24:43;;;;;;;7.87;7.27;;;23.40;95.80;;;;;;5059058;28;20507;-87
2022/08/31 10:27:15;;;;;;;8.80;8.07;;;23.20;96.30;;;;;;5054054;28;20488;-87
2022/08/31 10:29:50;;;;;;;8.17;7.37;;;23.20;96.00;;;;;;5057732;28;20554;-85
2022/08/31 10:32:30;;;;;;;10.30;7.90;;;23.30;95.70;;;;;;5057672;28;20960;-86
2022/08/31 10:35:06;;;;;;;8.33;7.47;;;23.40;95.50;;;;;;5056815;28;20448;-87
2022/08/31 10:37:42;;;;;;;9.17;8.27;;;23.30;95.30;;;;;;5063090;28;20452;-86
2022/08/31 10:40:14;;;;;;;9.30;7.47;;;23.30;95.20;;;;;;5060550;28;20560;-86
2022/08/31 10:42:48;;;;;;;9.27;8.20;;;23.40;95.30;;;;;;5060046;28;20822;-86
2022/08/31 10:45:21;;;;;;;8.37;7.10;;;23.20;95.30;;;;;;5066460;28;20457;-86
2022/08/31 10:47:50;;;;;;;7.83;7.17;;;23.10;95.40;;;;;;5060570;28;20449;-87
2022/08/31 10:50:28;;;;;;;8.80;8.10;;;23.10;95.80;;;;;;5058380;28;20484;-85
2022/08/31 10:53:07;;;;;;;8.93;7.40;;;23.10;95.80;;;;;;5056328;28;20452;-85
2022/08/31 10:55:40;;;;;;;10.37;7.80;;;22.90;96.00;;;;;;5062062;28;20492;-86
2022/08/31 10:58:17;;;;;;;9.23;7.10;;;22.90;96.10;;;;;;5056750;28;20518;-86
2022/08/31 11:00:53;;;;;;;11.40;9.00;;;22.90;96.30;;;;;;5055654;28;20562;-86
2022/08/31 11:03:33;;;;;;;11.03;8.10;;;22.90;96.20;;;;;;5055175;28;20448;-86
2022/08/31 11:06:08;;;;;;;10.03;8.43;;;22.80;96.10;;;;;;5055578;28;20491;-86
2022/08/31 11:08:48;;;;;;;13.03;9.13;;;22.80;96.40;;;;;;5056077;28;21003;-86
2022/08/31 11:11:23;;;;;;;9.43;8.40;;;22.80;96.50;;;;;;5056498;28;20531;-85
2022/08/31 11:14:13;;;;;;;8.07;7.47;;;22.70;96.80;;;;;;5054400;28;20476;-86
2022/08/31 11:16:57;;;;;;;12.37;8.70;;;22.60;97.00;;;;;;5065864;28;20444;-86
2022/08/31 11:19:49;;;;;;;10.30;9.13;;;22.50;97.30;;;;;;5068929;28;20485;-86
2022/08/31 11:22:40;;;;;;;9.53;8.60;;;22.40;97.50;;;;;;5055618;28;20956;-87
2022/08/31 11:25:46;;;;;;;9.63;8.73;;;22.30;97.80;;;;;;5039089;28;20518;-86
2022/08/31 11:28:22;;;;;;;17.87;14.00;;;22.20;98.00;;;;;;5057417;28;20455;-87
2022/08/31 11:30:50;;;;;;;25.73;15.83;;;22.20;98.60;;;;;;5065906;28;20823;-87
2022/08/31 11:33:22;;;;;;;11.63;10.50;;;22.20;98.90;;;;;;5063706;28;20453;-86
2022/08/31 11:36:04;;;;;;;14.87;13.17;;;22.00;99.00;;;;;;5066849;28;20475;-86
2022/08/31 11:38:53;;;;;;;12.67;11.30;;;22.00;99.30;;;;;;5078140;28;20938;-86
2022/08/31 11:41:43;;;;;;;10.63;9.43;;;22.00;99.70;;;;;;5065369;28;20448;-87
2022/08/31 11:44:59;;;;;;;10.37;9.07;;;22.00;99.90;;;;;;5060710;28;20455;-86
2022/08/31 11:47:38;;;;;;;13.20;9.67;;;21.90;99.90;;;;;;5059454;28;20559;-87
2022/08/31 11:50:27;;;;;;;14.10;11.83;;;21.90;99.90;;;;;;5058196;28;20467;-87
2022/08/31 11:52:55;;;;;;;10.27;9.13;;;21.80;99.80;;;;;;5075215;28;20449;-86
2022/08/31 11:55:27;;;;;;;12.40;11.10;;;21.80;99.70;;;;;;5071998;28;20446;-86
2022/08/31 11:58:18;;;;;;;11.53;10.43;;;21.90;99.80;;;;;;5065910;28;20438;-86
2022/08/31 12:00:50;;;;;;;9.63;8.63;;;21.90;99.70;;;;;;5058587;28;20440;-86
2022/08/31 12:03:50;;;;;;;13.20;9.57;;;22.00;99.70;;;;;;5059056;28;21024;-85
2022/08/31 12:07:05;;;;;;;10.90;9.90;;;22.00;99.90;;;;;;5061166;28;20484;-87
2022/08/31 12:09:54;;;;;;;10.80;8.10;;;22.00;99.90;;;;;;5059988;28;21013;-88
2022/08/31 12:12:35;;;;;;;9.17;8.27;;;22.10;99.90;;;;;;5061185;28;20921;-86
2022/08/31 12:15:12;;;;;;;10.53;9.40;;;22.10;99.90;;;;;;5075608;28;20441;-86
2022/08/31 12:17:50;;;;;;;10.00;8.83;;;22.10;99.90;;;;;;5069149;28;20452;-86
2022/08/31 12:20:26;;;;;;;11.27;8.80;;;22.10;99.90;;;;;;5114349;22;20482;-83
2022/08/31 12:26:04;;;;;;;12.83;10.00;;;22.10;99.90;;;;;;5100891;28;20515;-82
2022/08/31 12:28:43;;;;;;;11.90;9.57;;;22.10;99.90;;;;;;5101733;28;20446;-84
2022/08/31 12:31:15;;;;;;;11.27;10.20;;;22.30;99.90;;;;;;5094057;28;20459;-83
2022/08/31 12:33:49;;;;;;;12.37;9.23;;;22.40;99.90;;;;;;5096507;28;20455;-84
2022/08/31 12:36:19;;;;;;;10.27;9.20;;;22.70;99.90;;;;;;5096659;28;20747;-85
2022/08/31 12:38:46;;;;;;;9.23;8.37;;;23.00;99.90;;;;;;5081923;28;20522;-83
2022/08/31 12:41:14;;;;;;;10.30;8.80;;;23.20;98.80;;;;;;5080816;28;20459;-84
2022/08/31 12:43:44;;;;;;;8.43;7.63;;;23.40;98.00;;;;;;5080094;28;20523;-84
2022/08/31 12:46:33;;;;;;;10.90;9.20;;;23.80;97.60;;;;;;5082017;28;20480;-83
2022/08/31 12:49:29;;;;;;;10.00;8.87;;;24.00;96.20;;;;;;5088005;28;20507;-85
2022/08/31 12:52:02;;;;;;;9.27;8.37;;;24.30;95.70;;;;;;5091667;28;20421;-81
2022/08/31 12:54:50;;;;;;;8.93;8.13;;;24.50;94.70;;;;;;5086769;28;20424;-84
2022/08/31 12:57:37;;;;;;;9.77;8.80;;;24.70;94.30;;;;;;5099695;28;20468;-85
2022/08/31 13:00:08;;;;;;;10.80;9.70;;;25.00;93.60;;;;;;5086378;28;20468;-83
2022/08/31 13:02:40;;;;;;;10.70;9.70;;;25.40;92.90;;;;;;5083383;28;20445;-85
2022/08/31 13:05:17;;;;;;;10.00;9.00;;;25.40;91.80;;;;;;5083149;28;20448;-84
2022/08/31 13:07:44;;;;;;;9.53;8.70;;;25.40;91.90;;;;;;5081830;28;20873;-83
2022/08/31 13:10:14;;;;;;;9.27;8.43;;;25.80;90.90;;;;;;5087217;28;20852;-84
2022/08/31 13:12:48;;;;;;;9.20;8.30;;;25.90;90.40;;;;;;5085324;28;20450;-84
2022/08/31 13:15:22;;;;;;;13.50;9.70;;;27.40;87.00;;;;;;5081558;28;20455;-83
2022/08/31 13:17:49;;;;;;;10.50;8.03;;;28.10;80.60;;;;;;5085805;28;20436;-84
2022/08/31 13:20:20;;;;;;;10.57;9.00;;;29.60;75.80;;;;;;5091601;28;20475;-83